Time;durP1;ratioP1;P1;durP2;ratioP2;P2;SDS_P1;SDS_P2;PMS_P1;PMS_P2;Temp;Humidity;BMP_temperature;BMP_pressure;BME280_temperature;BME280_humidity;BME280_pressure;Samples;Min_cycle;Max_cycle;Signal;HPM_P1;HPM_P2
2023/12/24 00:00:38;;;;;;;2.10;1.30;;;10.10;99.90;;;;;;5020963;28;20927;-69
2023/12/24 00:03:04;;;;;;;1.90;1.10;;;10.10;99.90;;;;;;5019526;28;20261;-69
2023/12/24 00:05:29;;;;;;;2.37;1.30;;;10.10;99.90;;;;;;5021792;28;20719;-69
2023/12/24 00:07:55;;;;;;;3.13;1.50;;;10.10;99.90;;;;;;5022466;28;20494;-69
2023/12/24 00:10:21;;;;;;;3.10;1.60;;;10.10;99.90;;;;;;5027342;28;20243;-69
2023/12/24 00:12:47;;;;;;;2.90;1.70;;;10.10;99.90;;;;;;5025751;28;20204;-69
2023/12/24 00:15:12;;;;;;;2.23;1.40;;;10.10;99.90;;;;;;5025680;28;20508;-69
2023/12/24 00:17:38;;;;;;;2.33;1.40;;;10.20;99.90;;;;;;5025506;28;20172;-69
2023/12/24 00:20:04;;;;;;;2.10;1.40;;;10.20;99.90;;;;;;5026343;28;20190;-69
2023/12/24 00:22:31;;;;;;;2.13;1.30;;;10.10;99.90;;;;;;5024266;28;20174;-69
2023/12/24 00:24:57;;;;;;;2.43;1.27;;;10.10;99.90;;;;;;5023839;28;20521;-68
2023/12/24 00:27:22;;;;;;;2.93;1.30;;;10.10;99.90;;;;;;5020340;28;20941;-69
2023/12/24 00:29:48;;;;;;;3.00;1.30;;;10.10;99.90;;;;;;5025185;28;20591;-69
2023/12/24 00:32:15;;;;;;;2.40;1.43;;;10.10;99.90;;;;;;5019237;28;20775;-69
2023/12/24 00:34:41;;;;;;;2.20;1.30;;;10.10;99.90;;;;;;5021497;28;20196;-69
2023/12/24 00:37:06;;;;;;;1.90;1.20;;;10.00;99.90;;;;;;5020216;28;20518;-69
2023/12/24 00:39:32;;;;;;;2.10;1.20;;;10.10;99.90;;;;;;5023505;28;20188;-69
2023/12/24 00:41:58;;;;;;;2.20;1.40;;;10.10;99.90;;;;;;5022889;28;20872;-69
2023/12/24 00:44:23;;;;;;;2.37;1.30;;;10.10;99.90;;;;;;5022523;28;20283;-69
2023/12/24 00:46:49;;;;;;;2.57;1.20;;;10.10;99.90;;;;;;5021777;28;20299;-68
2023/12/24 00:49:14;;;;;;;2.20;1.30;;;10.10;99.90;;;;;;5023635;28;20227;-69
2023/12/24 00:51:42;;;;;;;2.73;1.57;;;10.10;99.90;;;;;;5023592;28;20255;-68
2023/12/24 00:54:08;;;;;;;2.23;1.10;;;10.10;99.90;;;;;;5023114;28;20279;-70
2023/12/24 00:56:34;;;;;;;3.13;1.30;;;10.20;99.90;;;;;;5020516;28;20432;-69
2023/12/24 00:58:59;;;;;;;2.10;1.20;;;10.10;99.90;;;;;;5021735;28;20739;-69
2023/12/24 01:01:25;;;;;;;3.30;1.30;;;10.10;99.90;;;;;;5045828;28;20177;-69
2023/12/24 01:03:50;;;;;;;3.17;1.73;;;10.20;99.90;;;;;;5055785;28;20200;-69
2023/12/24 01:06:16;;;;;;;2.40;1.40;;;10.20;99.90;;;;;;5018785;28;20283;-68
2023/12/24 01:08:42;;;;;;;2.80;1.40;;;10.20;99.90;;;;;;5019037;28;20613;-68
2023/12/24 01:11:07;;;;;;;2.77;1.60;;;10.20;99.90;;;;;;5022032;28;20455;-69
2023/12/24 01:13:33;;;;;;;1.90;1.20;;;10.20;99.90;;;;;;5021897;28;20230;-68
2023/12/24 01:16:01;;;;;;;2.63;1.57;;;10.20;99.90;;;;;;5023511;28;20239;-69
2023/12/24 01:18:27;;;;;;;2.80;1.43;;;10.20;99.90;;;;;;5023808;28;20679;-69
2023/12/24 01:20:52;;;;;;;2.60;1.33;;;10.20;99.90;;;;;;5023064;28;20474;-69
2023/12/24 01:23:18;;;;;;;2.33;1.20;;;10.10;99.90;;;;;;5026307;28;20404;-69
2023/12/24 01:25:44;;;;;;;2.87;1.50;;;10.20;99.90;;;;;;5019849;28;20204;-69
2023/12/24 01:28:10;;;;;;;2.50;1.20;;;10.20;99.90;;;;;;5022875;28;20438;-69
2023/12/24 01:30:35;;;;;;;2.67;1.40;;;10.20;99.90;;;;;;5024840;28;20475;-69
2023/12/24 01:33:01;;;;;;;3.47;1.40;;;10.10;99.90;;;;;;5024496;28;20231;-69
2023/12/24 01:35:26;;;;;;;2.80;1.50;;;10.10;99.90;;;;;;5021935;28;20569;-69
2023/12/24 01:37:52;;;;;;;1.90;1.20;;;10.20;99.90;;;;;;5019414;28;20182;-69
2023/12/24 01:40:17;;;;;;;3.50;1.43;;;10.20;99.90;;;;;;5023109;28;20192;-69
2023/12/24 01:42:45;;;;;;;2.07;1.23;;;10.10;99.90;;;;;;5020597;28;20203;-69
2023/12/24 01:45:10;;;;;;;4.60;2.00;;;10.20;99.90;;;;;;5022862;28;20200;-69
2023/12/24 01:47:36;;;;;;;2.30;1.30;;;10.20;99.90;;;;;;5020264;28;20423;-69
2023/12/24 01:50:03;;;;;;;6.33;1.90;;;10.20;99.90;;;;;;5055019;28;20209;-69
2023/12/24 01:52:29;;;;;;;3.30;1.57;;;10.20;99.90;;;;;;5049815;28;20189;-68
2023/12/24 01:54:54;;;;;;;2.70;1.63;;;10.20;99.90;;;;;;5022084;28;20450;-69
2023/12/24 01:57:20;;;;;;;5.93;1.40;;;10.20;99.90;;;;;;5022013;28;20184;-68
2023/12/24 01:59:46;;;;;;;2.00;1.20;;;10.20;99.90;;;;;;5024115;28;20654;-69
2023/12/24 02:02:12;;;;;;;3.80;1.53;;;10.20;99.90;;;;;;5020238;28;20263;-69
2023/12/24 02:04:38;;;;;;;2.20;1.20;;;10.30;99.90;;;;;;5021511;28;20443;-69
2023/12/24 02:07:05;;;;;;;2.40;1.40;;;10.20;99.90;;;;;;5020822;28;20811;-69
2023/12/24 02:09:31;;;;;;;2.20;1.20;;;10.30;99.90;;;;;;5024280;28;20187;-69
2023/12/24 02:11:56;;;;;;;2.70;1.43;;;10.30;99.90;;;;;;5046215;28;20435;-69
2023/12/24 02:14:22;;;;;;;2.97;1.40;;;10.30;99.90;;;;;;5021893;28;20319;-69
2023/12/24 02:16:49;;;;;;;2.10;1.30;;;10.30;99.90;;;;;;5025006;28;20185;-68
2023/12/24 02:19:18;;;;;;;2.07;1.13;;;10.40;99.90;;;;;;5016479;28;20189;-69
2023/12/24 02:21:44;;;;;;;2.00;1.23;;;10.40;99.90;;;;;;5019040;28;20554;-68
2023/12/24 02:24:10;;;;;;;2.17;1.23;;;10.40;99.90;;;;;;5020871;28;20562;-68
2023/12/24 02:26:42;;;;;;;2.30;1.30;;;10.40;99.90;;;;;;5015193;28;20204;-69
2023/12/24 02:29:23;;;;;;;5.23;1.30;;;10.30;99.90;;;;;;5020995;28;20506;-68
2023/12/24 02:31:52;;;;;;;2.30;1.40;;;10.30;99.90;;;;;;5015353;28;20471;-69
2023/12/24 02:34:19;;;;;;;2.30;1.33;;;10.20;99.90;;;;;;5022309;28;21284;-69
2023/12/24 02:36:47;;;;;;;2.30;1.37;;;10.30;99.90;;;;;;5019560;28;20811;-69
2023/12/24 02:39:12;;;;;;;2.50;1.40;;;10.30;99.90;;;;;;5022222;28;20427;-69
2023/12/24 02:41:38;;;;;;;1.90;1.10;;;10.30;99.90;;;;;;5015576;28;20440;-69
2023/12/24 02:44:04;;;;;;;3.37;1.40;;;10.30;99.90;;;;;;5018063;28;20216;-70
2023/12/24 02:46:29;;;;;;;3.13;1.50;;;10.20;99.90;;;;;;5023199;28;20528;-69
2023/12/24 02:48:55;;;;;;;2.30;1.30;;;10.30;99.90;;;;;;5019618;28;20478;-69
2023/12/24 02:51:20;;;;;;;2.20;1.27;;;10.20;99.90;;;;;;5023156;28;20208;-69
2023/12/24 02:53:46;;;;;;;5.13;1.20;;;10.30;99.90;;;;;;5019445;28;20228;-69
2023/12/24 02:56:12;;;;;;;2.40;1.50;;;10.30;99.90;;;;;;5018260;28;20191;-69
2023/12/24 02:58:37;;;;;;;1.97;1.13;;;10.30;99.90;;;;;;5026266;28;20275;-69
2023/12/24 03:01:03;;;;;;;2.20;1.30;;;10.40;99.90;;;;;;5029601;28;20214;-69
2023/12/24 03:03:28;;;;;;;3.30;1.20;;;10.40;99.90;;;;;;5027827;28;20741;-69
2023/12/24 03:05:54;;;;;;;2.30;1.40;;;10.40;99.90;;;;;;5022322;28;20189;-69
2023/12/24 03:08:21;;;;;;;2.13;1.33;;;10.40;99.90;;;;;;5025979;28;20276;-69
2023/12/24 03:10:46;;;;;;;3.60;1.30;;;10.30;99.90;;;;;;5027423;28;20208;-69
2023/12/24 03:13:12;;;;;;;2.50;1.30;;;10.20;99.90;;;;;;5024579;28;20569;-69
2023/12/24 03:15:38;;;;;;;1.90;1.23;;;10.30;99.90;;;;;;5016525;28;20174;-69
2023/12/24 03:18:04;;;;;;;2.20;1.30;;;10.30;99.90;;;;;;5019025;28;20484;-69
2023/12/24 03:20:29;;;;;;;2.23;1.20;;;10.30;99.90;;;;;;5015304;28;20184;-69
2023/12/24 03:22:55;;;;;;;4.20;1.70;;;10.30;99.90;;;;;;5021744;28;20227;-69
2023/12/24 03:25:21;;;;;;;3.40;1.73;;;10.30;99.90;;;;;;5023232;28;20729;-69
2023/12/24 03:27:46;;;;;;;2.63;1.53;;;10.40;99.90;;;;;;5021841;28;20316;-69
2023/12/24 03:30:12;;;;;;;3.70;1.20;;;10.30;99.90;;;;;;5020079;28;20212;-69
2023/12/24 03:32:38;;;;;;;2.00;1.33;;;10.40;99.90;;;;;;5020356;28;20177;-69
2023/12/24 03:35:04;;;;;;;2.60;1.40;;;10.40;99.90;;;;;;5017805;28;20531;-69
2023/12/24 03:37:29;;;;;;;2.13;1.27;;;10.50;99.90;;;;;;5020665;28;20251;-69
2023/12/24 03:39:55;;;;;;;2.73;1.20;;;10.50;99.90;;;;;;5019766;28;20851;-69
2023/12/24 03:42:20;;;;;;;2.20;1.20;;;10.40;99.90;;;;;;5021176;28;20180;-69
2023/12/24 03:44:46;;;;;;;2.20;1.27;;;10.40;99.90;;;;;;5022404;28;20287;-69
2023/12/24 03:47:11;;;;;;;2.50;1.67;;;10.40;99.90;;;;;;5017945;28;20240;-69
2023/12/24 03:49:37;;;;;;;2.13;1.30;;;10.50;99.90;;;;;;5014334;28;20220;-69
2023/12/24 03:52:03;;;;;;;2.27;1.33;;;10.50;99.90;;;;;;5015156;28;20192;-69
2023/12/24 03:54:28;;;;;;;2.20;1.30;;;10.50;99.90;;;;;;5021058;28;20204;-69
2023/12/24 03:56:54;;;;;;;2.93;1.50;;;10.50;99.90;;;;;;5017329;28;20650;-69
2023/12/24 03:59:19;;;;;;;2.30;1.30;;;10.50;99.90;;;;;;5017536;28;20612;-69
2023/12/24 04:01:45;;;;;;;1.90;1.00;;;10.40;99.90;;;;;;5022628;28;20230;-69
2023/12/24 04:04:10;;;;;;;2.20;1.40;;;10.40;99.90;;;;;;5021301;28;20208;-69
2023/12/24 04:06:36;;;;;;;2.00;1.10;;;10.40;99.90;;;;;;5019292;28;20199;-69
2023/12/24 04:09:02;;;;;;;4.30;1.60;;;10.40;99.90;;;;;;5023664;28;20189;-69
2023/12/24 04:11:28;;;;;;;2.20;1.27;;;10.40;99.90;;;;;;5021154;28;20204;-69
2023/12/24 04:13:53;;;;;;;2.10;1.23;;;10.40;99.90;;;;;;5027995;28;20427;-68
2023/12/24 04:16:19;;;;;;;3.73;1.40;;;10.40;99.90;;;;;;5024459;28;20181;-69
2023/12/24 04:18:44;;;;;;;2.20;1.20;;;10.30;99.90;;;;;;5027236;28;20788;-69
2023/12/24 04:21:10;;;;;;;2.70;1.33;;;10.40;99.90;;;;;;5021133;28;20601;-69
2023/12/24 04:23:36;;;;;;;2.60;1.47;;;10.40;99.90;;;;;;5024287;28;20699;-69
2023/12/24 04:26:01;;;;;;;4.10;1.50;;;10.40;99.90;;;;;;5023769;28;20191;-69
2023/12/24 04:28:27;;;;;;;2.40;1.40;;;10.40;99.90;;;;;;5024402;28;20625;-69
2023/12/24 04:30:52;;;;;;;2.30;1.23;;;10.40;99.90;;;;;;5022072;28;20207;-69
2023/12/24 04:33:18;;;;;;;2.67;1.57;;;10.40;99.90;;;;;;5025622;28;20215;-69
2023/12/24 04:35:45;;;;;;;2.00;1.30;;;10.30;99.90;;;;;;5022091;28;20244;-69
2023/12/24 04:38:10;;;;;;;2.10;1.30;;;10.30;99.90;;;;;;5024028;28;20431;-69
2023/12/24 04:40:36;;;;;;;2.70;1.40;;;10.40;99.90;;;;;;5025218;28;20419;-69
2023/12/24 04:43:02;;;;;;;2.73;1.50;;;10.40;99.90;;;;;;5021475;28;20781;-69
2023/12/24 04:45:27;;;;;;;2.30;1.40;;;10.40;99.90;;;;;;5023357;28;20325;-69
2023/12/24 04:47:55;;;;;;;3.13;1.50;;;10.40;99.90;;;;;;5018007;28;20185;-69
2023/12/24 04:50:21;;;;;;;1.87;1.10;;;10.30;99.90;;;;;;5019293;28;20614;-69
2023/12/24 04:52:47;;;;;;;3.00;1.50;;;10.30;99.90;;;;;;5024826;28;20415;-69
2023/12/24 04:55:12;;;;;;;2.50;1.37;;;10.40;99.90;;;;;;5022768;28;20187;-69
2023/12/24 04:57:38;;;;;;;2.00;1.30;;;10.30;99.90;;;;;;5022124;28;20215;-69
2023/12/24 05:00:05;;;;;;;2.00;1.30;;;10.30;99.90;;;;;;5020224;28;20264;-69
2023/12/24 05:02:33;;;;;;;2.57;1.40;;;10.40;99.90;;;;;;5021957;28;20173;-69
2023/12/24 05:04:59;;;;;;;2.10;1.30;;;10.30;99.90;;;;;;5024386;28;20451;-69
2023/12/24 05:07:25;;;;;;;3.20;1.40;;;10.30;99.90;;;;;;5018854;28;20506;-68
2023/12/24 05:09:51;;;;;;;2.10;1.20;;;10.30;99.90;;;;;;5019733;28;20620;-69
2023/12/24 05:12:16;;;;;;;2.37;1.27;;;10.30;99.90;;;;;;5021676;28;20200;-69
2023/12/24 05:14:42;;;;;;;2.50;1.23;;;10.30;99.90;;;;;;5023168;28;20459;-68
2023/12/24 05:17:07;;;;;;;2.10;1.30;;;10.40;99.90;;;;;;5020440;28;20177;-68
2023/12/24 05:19:33;;;;;;;2.37;1.87;;;10.30;99.90;;;;;;5023205;28;20181;-68
2023/12/24 05:21:58;;;;;;;2.10;1.20;;;10.20;99.90;;;;;;5025051;28;20225;-68
2023/12/24 05:24:24;;;;;;;2.60;1.40;;;10.20;99.90;;;;;;5049457;28;20218;-69
2023/12/24 05:26:49;;;;;;;2.63;1.50;;;10.10;99.90;;;;;;5026084;28;20199;-68
2023/12/24 05:29:15;;;;;;;2.20;1.17;;;10.10;99.90;;;;;;5023796;28;20553;-68
2023/12/24 05:31:42;;;;;;;3.13;1.40;;;10.10;99.90;;;;;;5024597;28;20569;-69
2023/12/24 05:34:08;;;;;;;2.30;1.57;;;10.10;99.90;;;;;;5021892;28;20205;-69
2023/12/24 05:36:35;;;;;;;2.43;1.27;;;10.10;99.90;;;;;;5023821;28;20419;-69
2023/12/24 05:39:01;;;;;;;2.40;1.40;;;10.10;99.90;;;;;;5023257;28;20897;-69
2023/12/24 05:41:27;;;;;;;3.03;1.30;;;10.10;99.90;;;;;;5019897;28;20449;-69
2023/12/24 05:43:53;;;;;;;2.40;1.87;;;10.20;99.90;;;;;;5020606;28;20259;-68
2023/12/24 05:46:20;;;;;;;2.40;1.30;;;10.20;99.90;;;;;;5023530;28;20423;-68
2023/12/24 05:48:45;;;;;;;2.60;1.37;;;10.20;99.90;;;;;;5018485;28;20181;-69
2023/12/24 05:51:11;;;;;;;2.10;1.30;;;10.10;99.90;;;;;;5020362;28;20989;-69
2023/12/24 05:53:37;;;;;;;2.30;1.50;;;10.20;99.90;;;;;;5021503;28;20200;-69
2023/12/24 05:56:03;;;;;;;2.03;1.10;;;10.20;99.90;;;;;;5019815;28;20663;-69
2023/12/24 05:58:28;;;;;;;2.07;1.20;;;10.30;99.90;;;;;;5021923;28;20260;-68
2023/12/24 06:00:54;;;;;;;2.70;1.43;;;10.20;99.90;;;;;;5021828;28;20180;-69
2023/12/24 06:03:19;;;;;;;2.50;1.27;;;10.20;99.90;;;;;;5020209;28;20204;-70
2023/12/24 06:05:45;;;;;;;2.27;1.50;;;10.20;99.90;;;;;;5019899;28;20184;-69
2023/12/24 06:08:14;;;;;;;4.30;1.47;;;10.10;99.90;;;;;;5019676;28;20177;-69
2023/12/24 06:10:40;;;;;;;2.10;1.40;;;10.20;99.90;;;;;;5023289;28;20207;-68
2023/12/24 06:13:05;;;;;;;2.00;1.20;;;10.20;99.90;;;;;;5021117;28;20447;-69
2023/12/24 06:15:31;;;;;;;2.03;1.30;;;10.20;99.90;;;;;;5022809;28;20649;-68
2023/12/24 06:17:57;;;;;;;2.00;1.30;;;10.20;99.90;;;;;;5019691;28;20181;-69
2023/12/24 06:20:22;;;;;;;3.60;1.17;;;10.20;99.90;;;;;;5023129;28;20651;-69
2023/12/24 06:22:48;;;;;;;1.90;1.20;;;10.30;99.90;;;;;;5022309;28;20194;-69
2023/12/24 06:25:13;;;;;;;2.20;1.30;;;10.30;99.90;;;;;;5022167;28;20263;-69
2023/12/24 06:27:39;;;;;;;3.07;1.40;;;10.30;99.90;;;;;;5016752;28;20214;-69
2023/12/24 06:30:05;;;;;;;3.30;1.33;;;10.40;99.90;;;;;;5022965;28;20729;-69
2023/12/24 06:32:31;;;;;;;2.10;1.20;;;10.30;99.90;;;;;;5022148;28;20679;-68
2023/12/24 06:34:58;;;;;;;1.90;1.10;;;10.30;99.90;;;;;;5023023;28;20454;-68
2023/12/24 06:37:23;;;;;;;4.40;1.50;;;10.40;99.90;;;;;;5019848;28;20191;-69
2023/12/24 06:39:49;;;;;;;2.07;1.17;;;10.30;99.90;;;;;;5022544;28;20943;-69
2023/12/24 06:42:14;;;;;;;2.07;1.10;;;10.40;99.90;;;;;;5021614;28;20181;-69
2023/12/24 06:44:43;;;;;;;2.57;1.30;;;10.40;99.90;;;;;;5019380;28;20235;-68
2023/12/24 06:47:08;;;;;;;2.10;1.30;;;10.40;99.90;;;;;;5020916;28;20671;-69
2023/12/24 06:49:34;;;;;;;1.90;1.10;;;10.40;99.90;;;;;;5021443;28;20439;-69
2023/12/24 06:52:00;;;;;;;2.10;1.20;;;10.50;99.90;;;;;;5020911;28;20195;-68
2023/12/24 06:54:25;;;;;;;2.17;1.17;;;10.50;99.90;;;;;;5021363;28;20726;-69
2023/12/24 06:56:51;;;;;;;2.50;1.40;;;10.40;99.90;;;;;;5022998;28;20254;-69
2023/12/24 06:59:16;;;;;;;2.00;1.20;;;10.40;99.90;;;;;;5017405;28;20192;-68
2023/12/24 07:01:42;;;;;;;2.10;1.10;;;10.40;99.90;;;;;;5041002;28;20189;-69
2023/12/24 07:04:07;;;;;;;4.70;1.37;;;10.40;99.90;;;;;;5020763;28;20232;-69
2023/12/24 07:06:33;;;;;;;2.10;1.30;;;10.30;99.90;;;;;;5017455;28;20187;-69
2023/12/24 07:08:58;;;;;;;3.07;1.20;;;10.30;99.90;;;;;;5019505;28;20669;-69
2023/12/24 07:11:24;;;;;;;1.90;1.00;;;10.30;99.90;;;;;;5022225;28;20901;-69
2023/12/24 07:13:49;;;;;;;2.00;1.10;;;10.40;99.90;;;;;;5022716;28;20618;-69
2023/12/24 07:16:15;;;;;;;2.63;1.20;;;10.30;99.90;;;;;;5022106;28;20180;-69
2023/12/24 07:18:41;;;;;;;3.00;1.40;;;10.30;99.90;;;;;;5021700;28;20259;-69
2023/12/24 07:21:06;;;;;;;2.40;1.33;;;10.30;99.90;;;;;;5017580;28;20662;-69
2023/12/24 07:23:32;;;;;;;3.00;1.23;;;10.30;99.90;;;;;;5020806;28;20814;-69
2023/12/24 07:25:57;;;;;;;1.93;1.10;;;10.40;99.90;;;;;;5022922;28;20203;-69
2023/12/24 07:28:23;;;;;;;1.93;1.17;;;10.40;99.90;;;;;;5022036;28;20191;-69
2023/12/24 07:30:49;;;;;;;1.93;1.10;;;10.40;99.90;;;;;;5021180;28;20211;-69
2023/12/24 07:33:15;;;;;;;1.80;1.03;;;10.40;99.90;;;;;;5022221;28;20283;-69
2023/12/24 07:35:41;;;;;;;1.90;1.10;;;10.40;99.90;;;;;;5021266;28;20200;-69
2023/12/24 07:38:07;;;;;;;2.00;1.20;;;10.50;99.90;;;;;;5017370;28;20801;-68
2023/12/24 07:40:32;;;;;;;2.43;1.10;;;10.50;99.90;;;;;;5019633;28;20271;-69
2023/12/24 07:42:59;;;;;;;1.80;1.10;;;10.50;99.90;;;;;;5022505;28;20208;-69
2023/12/24 07:45:26;;;;;;;2.80;1.20;;;10.50;99.90;;;;;;5020269;28;20176;-69
2023/12/24 07:47:52;;;;;;;3.40;1.00;;;10.50;99.90;;;;;;5024241;28;20422;-69
2023/12/24 07:50:18;;;;;;;1.93;1.13;;;10.40;99.90;;;;;;5022721;28;20471;-69
2023/12/24 07:52:43;;;;;;;1.70;0.90;;;10.40;99.90;;;;;;5022971;28;20552;-69
2023/12/24 07:55:09;;;;;;;2.60;1.50;;;10.30;99.90;;;;;;5025042;28;20551;-68
2023/12/24 07:57:34;;;;;;;2.00;1.10;;;10.40;99.90;;;;;;5023188;28;20177;-69
2023/12/24 08:00:01;;;;;;;1.90;1.10;;;10.40;99.90;;;;;;5022883;28;20716;-69
2023/12/24 08:02:26;;;;;;;2.00;1.00;;;10.30;99.90;;;;;;5026462;28;20184;-71
2023/12/24 08:04:54;;;;;;;1.70;0.90;;;10.30;99.90;;;;;;5026590;28;20497;-69
2023/12/24 08:07:20;;;;;;;1.80;1.00;;;10.30;99.90;;;;;;5022489;28;20254;-69
2023/12/24 08:09:46;;;;;;;2.23;1.10;;;10.20;99.90;;;;;;5025045;28;20458;-67
2023/12/24 08:12:12;;;;;;;2.53;1.00;;;10.20;99.90;;;;;;5026454;28;20484;-68
2023/12/24 08:14:38;;;;;;;2.33;1.00;;;10.20;99.90;;;;;;5026085;28;20195;-68
2023/12/24 08:17:03;;;;;;;1.97;1.10;;;10.10;99.90;;;;;;5018682;28;20439;-68
2023/12/24 08:19:29;;;;;;;3.40;1.10;;;10.10;99.90;;;;;;5014037;28;20209;-68
2023/12/24 08:21:54;;;;;;;1.70;0.90;;;10.00;99.90;;;;;;5022512;28;20177;-69
2023/12/24 08:24:20;;;;;;;2.10;1.10;;;10.00;99.90;;;;;;5022691;28;20212;-68
2023/12/24 08:26:45;;;;;;;1.80;1.00;;;9.90;99.90;;;;;;5023344;28;20184;-69
2023/12/24 08:29:11;;;;;;;1.90;1.10;;;9.90;99.90;;;;;;5022977;28;20192;-68
2023/12/24 08:31:37;;;;;;;2.57;1.17;;;9.90;99.90;;;;;;5024722;28;20301;-68
2023/12/24 08:34:02;;;;;;;5.93;1.10;;;9.90;99.90;;;;;;5024510;28;20609;-68
2023/12/24 08:36:28;;;;;;;1.90;1.07;;;10.00;99.90;;;;;;5025813;28;20215;-68
2023/12/24 08:38:54;;;;;;;1.97;1.00;;;10.10;99.90;;;;;;5019965;28;20617;-68
2023/12/24 08:41:19;;;;;;;1.97;1.00;;;10.10;99.90;;;;;;5021374;28;20666;-68
2023/12/24 08:43:45;;;;;;;1.70;0.90;;;10.20;99.90;;;;;;5020037;28;20459;-68
2023/12/24 08:46:11;;;;;;;2.10;1.50;;;10.30;99.90;;;;;;5022197;28;20177;-68
2023/12/24 08:48:37;;;;;;;3.10;1.00;;;10.30;99.90;;;;;;5024375;28;20184;-68
2023/12/24 08:51:03;;;;;;;2.00;1.10;;;10.40;99.90;;;;;;5022327;28;20379;-68
2023/12/24 08:53:29;;;;;;;1.90;1.00;;;10.40;99.90;;;;;;5023336;28;20614;-68
2023/12/24 08:55:55;;;;;;;1.90;1.00;;;10.40;99.90;;;;;;5017986;28;20442;-68
2023/12/24 08:58:20;;;;;;;2.13;0.90;;;10.40;99.90;;;;;;5022524;28;20200;-68
2023/12/24 09:00:46;;;;;;;1.63;0.90;;;10.40;99.90;;;;;;5022028;28;20653;-68
2023/12/24 09:03:11;;;;;;;1.70;0.90;;;10.30;99.90;;;;;;5025421;28;20204;-70
2023/12/24 09:05:37;;;;;;;1.80;1.00;;;10.30;99.90;;;;;;5023555;28;20191;-68
2023/12/24 09:08:03;;;;;;;1.80;1.00;;;10.20;99.90;;;;;;5022745;28;20195;-68
2023/12/24 09:10:28;;;;;;;2.00;1.07;;;10.30;99.90;;;;;;5019201;28;20235;-68
2023/12/24 09:12:54;;;;;;;1.80;1.10;;;10.30;99.90;;;;;;5021292;28;20945;-68
2023/12/24 09:15:20;;;;;;;1.90;1.10;;;10.30;99.90;;;;;;5020679;28;20763;-68
2023/12/24 09:17:46;;;;;;;2.23;1.13;;;10.30;99.90;;;;;;5021987;28;20631;-68
2023/12/24 09:20:12;;;;;;;1.80;0.90;;;10.30;99.90;;;;;;5021881;28;20657;-68
2023/12/24 09:22:37;;;;;;;1.90;1.10;;;10.20;99.90;;;;;;5020683;28;20427;-68
2023/12/24 09:25:04;;;;;;;6.43;1.73;;;10.20;99.90;;;;;;5024360;28;20653;-68
2023/12/24 09:27:29;;;;;;;1.90;1.00;;;10.20;99.90;;;;;;5021805;28;20184;-68
2023/12/24 09:29:55;;;;;;;2.10;1.10;;;10.20;99.90;;;;;;5021176;28;20522;-68
2023/12/24 09:32:20;;;;;;;1.90;1.00;;;10.10;99.90;;;;;;5023059;28;20651;-68
2023/12/24 09:34:46;;;;;;;2.07;1.20;;;10.00;99.90;;;;;;5021486;28;20616;-68
2023/12/24 09:37:12;;;;;;;2.00;1.10;;;10.00;99.90;;;;;;5024607;28;20212;-68
2023/12/24 09:39:37;;;;;;;3.07;1.30;;;10.10;99.90;;;;;;5023834;28;20246;-68
2023/12/24 09:42:03;;;;;;;2.63;1.17;;;10.00;99.90;;;;;;5021602;28;20606;-68
2023/12/24 09:44:29;;;;;;;1.80;1.00;;;10.00;99.90;;;;;;5020176;28;20208;-68
2023/12/24 09:46:55;;;;;;;1.90;1.20;;;10.00;99.90;;;;;;5018063;28;20418;-68
2023/12/24 09:49:21;;;;;;;1.90;1.20;;;10.10;99.90;;;;;;5021445;28;20838;-68
2023/12/24 09:51:47;;;;;;;1.90;1.20;;;10.00;99.90;;;;;;5021269;28;20491;-68
2023/12/24 09:54:14;;;;;;;2.03;1.00;;;10.10;99.90;;;;;;5012403;28;20209;-69
2023/12/24 09:56:40;;;;;;;1.90;1.20;;;10.10;99.90;;;;;;5015837;28;20181;-68
2023/12/24 09:59:05;;;;;;;2.20;1.40;;;10.10;99.90;;;;;;5022766;28;20415;-68
2023/12/24 10:01:42;;;;;;;2.00;1.07;;;10.10;99.90;;;;;;5020835;28;20730;-68
2023/12/24 10:04:07;;;;;;;2.03;1.23;;;10.10;99.90;;;;;;5023643;28;20288;-68
2023/12/24 10:06:50;;;;;;;2.00;1.27;;;10.10;99.90;;;;;;5024275;28;20506;-68
2023/12/24 10:09:15;;;;;;;2.10;1.23;;;10.10;99.90;;;;;;5020366;28;20651;-68
2023/12/24 10:11:41;;;;;;;2.23;1.17;;;10.10;99.90;;;;;;5023001;28;20473;-68
2023/12/24 10:14:06;;;;;;;2.57;1.20;;;10.10;99.90;;;;;;5024339;28;20203;-68
2023/12/24 10:16:45;;;;;;;3.23;1.10;;;10.10;99.90;;;;;;5018609;28;20181;-68
2023/12/24 10:19:22;;;;;;;4.37;1.10;;;10.00;99.90;;;;;;5024156;28;20172;-68
2023/12/24 10:22:05;;;;;;;2.13;1.40;;;10.00;99.90;;;;;;5023325;28;20438;-68
2023/12/24 10:24:35;;;;;;;1.90;1.20;;;10.00;99.90;;;;;;5020615;28;20540;-68
2023/12/24 10:27:08;;;;;;;2.20;1.20;;;10.00;99.90;;;;;;5022993;28;20423;-68
2023/12/24 10:29:38;;;;;;;2.10;1.30;;;9.90;99.90;;;;;;5023007;28;20423;-68
2023/12/24 10:32:04;;;;;;;2.10;1.30;;;9.80;99.90;;;;;;5021200;28;20403;-68
2023/12/24 10:34:32;;;;;;;2.10;1.20;;;9.80;99.90;;;;;;5019945;28;20484;-69
2023/12/24 10:36:59;;;;;;;2.30;1.47;;;9.80;99.90;;;;;;5024090;28;20502;-69
2023/12/24 10:39:25;;;;;;;2.73;1.10;;;9.80;99.90;;;;;;5021892;28;20411;-69
2023/12/24 10:41:57;;;;;;;2.00;1.13;;;9.70;99.90;;;;;;5023608;28;21036;-69
2023/12/24 10:44:23;;;;;;;4.43;1.30;;;9.70;99.90;;;;;;5017291;28;20244;-69
2023/12/24 10:46:49;;;;;;;2.23;1.30;;;9.70;99.90;;;;;;5023110;28;20414;-68
2023/12/24 10:49:16;;;;;;;2.00;1.27;;;9.70;99.90;;;;;;5015457;28;20432;-68
2023/12/24 10:51:42;;;;;;;1.90;1.10;;;9.70;99.90;;;;;;5020964;28;20465;-69
2023/12/24 10:54:08;;;;;;;3.17;1.20;;;9.70;99.90;;;;;;5016853;28;20427;-69
2023/12/24 10:56:46;;;;;;;2.63;1.30;;;9.70;99.90;;;;;;5021551;28;20449;-69
2023/12/24 10:59:21;;;;;;;5.50;1.40;;;9.60;99.90;;;;;;5021259;28;20686;-69
2023/12/24 11:01:49;;;;;;;2.80;1.37;;;9.70;99.90;;;;;;5018562;28;20786;-69
2023/12/24 11:04:45;;;;;;;2.70;1.30;;;9.80;99.90;;;;;;5017623;28;20463;-69
2023/12/24 11:07:33;;;;;;;1.80;1.10;;;9.90;99.90;;;;;;5043283;28;20440;-69
2023/12/24 11:10:03;;;;;;;1.93;1.20;;;9.90;99.90;;;;;;5021415;28;20458;-69
2023/12/24 11:12:36;;;;;;;2.00;1.10;;;9.80;99.90;;;;;;5022955;28;20419;-69
2023/12/24 11:15:03;;;;;;;2.20;1.17;;;9.80;99.90;;;;;;5020696;28;20493;-69
2023/12/24 11:17:38;;;;;;;2.70;1.10;;;9.90;99.90;;;;;;5021690;28;20419;-69
2023/12/24 11:20:23;;;;;;;2.00;1.20;;;9.80;99.90;;;;;;5019268;28;20819;-69
2023/12/24 11:23:04;;;;;;;1.90;1.20;;;9.80;99.90;;;;;;5021530;28;20514;-69
2023/12/24 11:25:46;;;;;;;2.50;1.30;;;9.80;99.90;;;;;;5023226;28;20953;-70
2023/12/24 11:28:35;;;;;;;1.80;0.90;;;9.70;99.90;;;;;;5021761;28;20454;-69
2023/12/24 11:31:05;;;;;;;2.27;1.30;;;9.70;99.90;;;;;;5020954;28;20528;-69
2023/12/24 11:33:31;;;;;;;2.00;1.10;;;9.70;99.90;;;;;;5021290;28;20550;-69
2023/12/24 11:36:01;;;;;;;4.27;1.27;;;9.70;99.90;;;;;;5020600;28;20506;-68
2023/12/24 11:38:35;;;;;;;2.83;1.10;;;9.80;99.90;;;;;;5021808;28;20265;-68
2023/12/24 11:41:07;;;;;;;2.30;1.27;;;9.80;99.90;;;;;;5018102;28;20418;-69
2023/12/24 11:43:34;;;;;;;2.20;1.20;;;9.70;99.90;;;;;;5023308;28;20844;-68
2023/12/24 11:45:59;;;;;;;2.60;1.33;;;9.70;99.90;;;;;;5018746;28;20482;-68
2023/12/24 11:48:27;;;;;;;1.93;1.20;;;9.70;99.90;;;;;;5020314;28;20411;-68
2023/12/24 11:51:07;;;;;;;2.20;1.30;;;9.70;99.90;;;;;;5019367;28;20198;-68
2023/12/24 11:53:40;;;;;;;2.10;1.30;;;9.70;99.90;;;;;;5021041;28;20437;-68
2023/12/24 11:56:16;;;;;;;2.20;1.37;;;9.60;99.90;;;;;;5013868;28;20446;-68
2023/12/24 11:58:57;;;;;;;2.00;1.20;;;9.60;99.90;;;;;;5019089;28;20414;-68
2023/12/24 12:01:24;;;;;;;2.20;1.43;;;9.60;99.90;;;;;;5020310;28;20522;-68
2023/12/24 12:03:56;;;;;;;2.30;1.10;;;9.60;99.90;;;;;;5018731;28;20519;-68
2023/12/24 12:06:21;;;;;;;2.00;1.20;;;9.60;99.90;;;;;;5021716;28;20411;-68
2023/12/24 12:08:47;;;;;;;2.40;1.30;;;9.60;99.90;;;;;;5017917;28;20442;-68
2023/12/24 12:11:12;;;;;;;2.20;1.30;;;9.60;99.90;;;;;;5016897;28;20207;-68
2023/12/24 12:13:38;;;;;;;2.60;1.30;;;9.60;99.90;;;;;;5019564;28;20220;-68
2023/12/24 12:16:04;;;;;;;2.67;1.13;;;9.60;99.90;;;;;;5021725;28;20238;-68
2023/12/24 12:18:30;;;;;;;2.13;1.40;;;9.60;99.90;;;;;;5021592;28;20230;-68
2023/12/24 12:20:55;;;;;;;1.80;1.10;;;9.60;99.90;;;;;;5020507;28;20875;-68
2023/12/24 12:23:21;;;;;;;4.20;1.63;;;9.70;99.90;;;;;;5020488;28;20298;-68
2023/12/24 12:25:47;;;;;;;7.63;1.30;;;9.70;99.90;;;;;;5022384;28;20219;-69
2023/12/24 12:28:13;;;;;;;2.00;1.13;;;9.70;99.90;;;;;;5020826;28;20243;-69
2023/12/24 12:30:39;;;;;;;2.07;1.30;;;9.70;99.90;;;;;;5023311;28;20469;-69
2023/12/24 12:33:05;;;;;;;2.13;1.53;;;9.60;99.90;;;;;;5019046;28;20435;-68
2023/12/24 12:35:30;;;;;;;3.30;1.40;;;9.70;99.90;;;;;;5026275;28;20200;-68
2023/12/24 12:37:56;;;;;;;2.50;1.40;;;9.70;99.90;;;;;;5023255;28;20192;-68
2023/12/24 12:40:22;;;;;;;3.07;1.63;;;9.70;99.90;;;;;;5023900;28;20176;-68
2023/12/24 12:42:48;;;;;;;2.20;1.23;;;9.70;99.90;;;;;;5025002;28;20181;-69
2023/12/24 12:45:13;;;;;;;2.30;1.30;;;9.70;99.90;;;;;;5024358;28;20188;-68